This is the latest recevied weather packets stored in our database for station/object K5UTC. If no packets are shown the sender has not sent any weather packets the latest 10 day(s).
| Time | Temp. | Humidity | Pressure | Rain* | Wind** | Luminosity | Snow |
|---|---|---|---|---|---|---|---|
| 1778117736 | 15.56° C | 98% | 1011.7 hPa | 0 mm | - | 0 W/m² | - |
| 1778117433 | 15.56° C | 98% | 1011.5 hPa | 0 mm | - | 0 W/m² | - |
| 1778117130 | 15.56° C | 98% | 1011.4 hPa | 0 mm | - | 0 W/m² | - |
| 1778116826 | 15.56° C | 98% | 1011.2 hPa | 0 mm | - | 0 W/m² | - |
| 1778116524 | 15.56° C | 98% | 1011.5 hPa | 0 mm | - | 0 W/m² | - |
| 1778116220 | 15.56° C | 98% | 1011.8 hPa | 0 mm | - | 0 W/m² | - |
| 1778115914 | 15.56° C | 98% | 1011.9 hPa | 0 mm | - | 0 W/m² | - |
| 1778115611 | 15.56° C | 98% | 1012.3 hPa | 0 mm | - | 0 W/m² | - |
| 1778115309 | 15.56° C | 98% | 1012.4 hPa | 0 mm | - | 0 W/m² | - |
| 1778115005 | 15.56° C | 98% | 1012.2 hPa | 0 mm | - | 0 W/m² | - |
| 1778114702 | 15.56° C | 98% | 1012 hPa | 0 mm | - | 0 W/m² | - |
| 1778114400 | 15.56° C | 98% | 1012 hPa | 0 mm | - | 0 W/m² | - |
| 1778114094 | 15.56° C | 98% | 1011.8 hPa | 0 mm | - | 1 W/m² | - |
| 1778113790 | 15.56° C | 98% | 1012.1 hPa | 0 mm | - | 1 W/m² | - |
| 1778113487 | 15.56° C | 97% | 1012.1 hPa | 0 mm | - | 3 W/m² | - |
| 1778113184 | 15.56° C | 97% | 1011.7 hPa | 0 mm | - | 4 W/m² | - |
| 1778112880 | 15.56° C | 97% | 1011.1 hPa | 0 mm | - | 12 W/m² | - |
| 1778112578 | 15.56° C | 97% | 1011.7 hPa | 0 mm | - | 12 W/m² | - |
| 1778112273 | 15.56° C | 98% | 1012.4 hPa | 0 mm | - | 11 W/m² | - |
| 1778111969 | 15.56° C | 98% | 1012.8 hPa | 0 mm | - | 11 W/m² | - |
| 1778111666 | 15.56° C | 98% | 1012.9 hPa | 0 mm | - | 13 W/m² | - |
| 1778111361 | 15.56° C | 98% | 1013 hPa | 0 mm | - | 8 W/m² | - |
| 1778111060 | 16.11° C | 98% | 1013 hPa | 0 mm | - | 11 W/m² | - |
| 1778110757 | 16.11° C | 98% | 1012.6 hPa | 1.27 mm | - | 16 W/m² | - |
| 1778110453 | 16.11° C | 98% | 1011.9 hPa | 6.1 mm | - | 32 W/m² | - |
* Rain latest hour (hover to see other rain measurements)
** Current wind speed in m/s (hover to see current wind gust speed)